createdAt,value
2024-02-13T00:02:02.831Z,2.95
2024-02-13T00:07:06.112Z,2.98
2024-02-13T00:12:09.516Z,2.83
2024-02-13T00:17:12.541Z,2.77
2024-02-13T00:22:16.095Z,2.66
2024-02-13T00:27:21.021Z,2.75
2024-02-13T00:32:22.955Z,2.79
2024-02-13T00:37:25.572Z,2.90
2024-02-13T00:42:37.258Z,2.82
2024-02-13T00:47:42.790Z,2.70
2024-02-13T00:52:45.383Z,2.82
2024-02-13T00:57:48.842Z,2.57
2024-02-13T01:02:52.924Z,2.58
2024-02-13T01:08:02.781Z,2.67
2024-02-13T01:13:06.369Z,2.73
2024-02-13T01:18:08.630Z,2.86
2024-02-13T01:23:13.466Z,2.95
2024-02-13T01:28:15.679Z,2.83
2024-02-13T01:33:17.753Z,2.79
2024-02-13T01:38:21.433Z,2.59
2024-02-13T01:43:26.314Z,2.66
2024-02-13T01:48:29.074Z,2.84
2024-02-13T01:53:32.465Z,2.85
2024-02-13T01:58:37.380Z,2.40
2024-02-13T02:03:40.134Z,2.46
2024-02-13T02:08:43.163Z,2.41
2024-02-13T02:13:45.477Z,2.42
2024-02-13T02:18:47.621Z,2.31
2024-02-13T02:23:49.739Z,2.50
2024-02-13T02:28:51.690Z,2.53
2024-02-13T02:33:57.052Z,2.26
2024-02-13T02:38:59.165Z,2.35
2024-02-13T02:44:01.121Z,2.41
2024-02-13T02:49:04.289Z,2.43
2024-02-13T02:54:06.890Z,2.70
2024-02-13T02:59:09.166Z,2.73
2024-02-13T03:04:11.888Z,2.59
2024-02-13T03:09:14.017Z,2.59
2024-02-13T03:14:15.958Z,2.94
2024-02-13T03:19:17.993Z,2.86
2024-02-13T03:24:19.998Z,2.91
2024-02-13T03:29:23.732Z,2.77
2024-02-13T03:34:25.829Z,2.64
2024-02-13T03:39:28.157Z,2.73
2024-02-13T03:44:30.155Z,2.83
2024-02-13T03:49:35.023Z,2.72
2024-02-13T03:54:37.399Z,2.80
2024-02-13T03:59:39.892Z,2.77
2024-02-13T04:04:41.967Z,2.72
2024-02-13T04:09:43.881Z,2.68
2024-02-13T04:14:45.895Z,2.71
2024-02-13T04:19:48.074Z,2.66
2024-02-13T04:24:50.300Z,2.53
2024-02-13T04:29:52.419Z,2.46
2024-02-13T04:34:55.099Z,2.38
2024-02-13T04:39:57.068Z,2.49
2024-02-13T04:45:00.889Z,2.49
2024-02-13T04:50:11.382Z,2.70
2024-02-13T04:55:14.928Z,2.71
2024-02-13T05:00:25.252Z,2.61
2024-02-13T05:05:46.221Z,2.83
2024-02-13T05:10:49.723Z,2.73
2024-02-13T05:15:51.853Z,2.58
2024-02-13T05:20:54.454Z,2.56
2024-02-13T05:25:59.181Z,2.67
2024-02-13T05:31:01.081Z,2.58
2024-02-13T05:36:06.099Z,2.61
2024-02-13T05:41:08.054Z,2.64
2024-02-13T05:46:10.280Z,2.60
2024-02-13T05:51:14.069Z,2.68
2024-02-13T05:56:26.343Z,2.56
2024-02-13T06:01:33.708Z,2.64
2024-02-13T06:06:38.168Z,2.57
2024-02-13T06:11:40.535Z,2.75
2024-02-13T06:16:42.589Z,2.70
2024-02-13T06:21:44.649Z,2.78
2024-02-13T06:26:50.365Z,2.76
2024-02-13T06:31:56.144Z,2.83
2024-02-13T06:36:58.185Z,2.83
2024-02-13T06:42:01.066Z,2.79
2024-02-13T06:47:08.068Z,2.85
2024-02-13T06:52:10.979Z,2.94
2024-02-13T06:57:12.956Z,2.86
2024-02-13T07:02:15.322Z,2.85
2024-02-13T07:07:28.901Z,2.87
2024-02-13T07:12:39.535Z,2.85
2024-02-13T07:17:52.525Z,2.85
2024-02-13T07:23:02.806Z,2.81
2024-02-13T07:28:05.673Z,2.85
2024-02-13T07:33:07.633Z,2.85
2024-02-13T07:38:09.660Z,2.91
2024-02-13T07:43:13.676Z,2.92
2024-02-13T07:48:15.842Z,2.99
2024-02-13T07:53:18.674Z,3.01
2024-02-13T07:58:20.657Z,3.08
2024-02-13T08:03:22.651Z,3.08
2024-02-13T08:08:24.600Z,3.14
2024-02-13T08:13:26.663Z,3.21
2024-02-13T08:18:28.639Z,3.37
2024-02-13T08:23:30.681Z,3.43
2024-02-13T08:28:32.681Z,3.54
2024-02-13T08:33:34.892Z,3.63
2024-02-13T08:38:40.318Z,3.65
2024-02-13T08:43:44.701Z,3.75
2024-02-13T08:48:52.859Z,3.80
2024-02-13T08:53:55.082Z,3.83
2024-02-13T08:58:58.069Z,4.10
2024-02-13T09:04:00.209Z,4.15
2024-02-13T09:09:03.111Z,4.08
2024-02-13T09:14:05.465Z,4.28
2024-02-13T09:19:08.544Z,4.28
2024-02-13T09:24:11.039Z,4.49
2024-02-13T09:29:13.138Z,4.68
2024-02-13T09:34:15.656Z,4.87
2024-02-13T09:39:18.147Z,5.03
2024-02-13T09:44:20.295Z,4.97
2024-02-13T09:49:23.600Z,5.03
2024-02-13T09:54:26.957Z,5.11
2024-02-13T09:59:31.204Z,5.12
2024-02-13T10:04:33.366Z,5.28
2024-02-13T10:09:35.532Z,5.41
2024-02-13T10:14:37.734Z,5.49
2024-02-13T10:19:40.200Z,5.58
2024-02-13T10:24:48.209Z,5.69
2024-02-13T10:29:50.246Z,6.04
2024-02-13T10:34:52.990Z,6.06
2024-02-13T10:39:58.577Z,6.06
2024-02-13T10:45:07.170Z,6.38
2024-02-13T10:50:10.780Z,6.41
2024-02-13T10:55:14.738Z,6.42
2024-02-13T11:00:20.553Z,6.73
2024-02-13T11:05:33.791Z,7.23
2024-02-13T11:10:36.000Z,7.47
2024-02-13T11:15:42.706Z,7.77
2024-02-13T11:20:44.904Z,8.01
2024-02-13T11:26:03.927Z,8.56
2024-02-13T11:31:17.893Z,8.35
2024-02-13T11:36:24.419Z,8.11
2024-02-13T11:41:26.605Z,8.18
2024-02-13T11:46:28.505Z,8.12
2024-02-13T11:51:32.389Z,8.14
2024-02-13T11:56:36.547Z,8.43
2024-02-13T12:01:39.309Z,8.41
2024-02-13T12:06:42.500Z,8.34
2024-02-13T12:11:46.985Z,8.29
2024-02-13T12:16:49.930Z,8.43
2024-02-13T12:21:52.002Z,8.34
2024-02-13T12:26:53.955Z,8.55
2024-02-13T12:31:57.802Z,8.51
2024-02-13T12:37:01.282Z,8.91
2024-02-13T12:42:06.608Z,8.68
2024-02-13T12:47:09.426Z,8.61
2024-02-13T12:52:23.542Z,8.71
2024-02-13T12:57:30.836Z,8.76
2024-02-13T13:02:34.164Z,8.70
2024-02-13T13:07:37.451Z,8.64
2024-02-13T13:12:45.875Z,8.52
2024-02-13T13:17:48.117Z,8.46
2024-02-13T13:22:52.791Z,8.42
2024-02-13T13:27:55.680Z,8.33
2024-02-13T13:32:57.809Z,8.30
2024-02-13T13:38:00.395Z,8.30
2024-02-13T13:43:02.690Z,8.30
2024-02-13T13:48:28.782Z,8.34
2024-02-13T13:53:31.842Z,8.38
2024-02-13T13:58:33.907Z,8.44
2024-02-13T14:03:35.903Z,8.53
2024-02-13T14:08:40.515Z,8.64
2024-02-13T14:13:42.560Z,8.59
2024-02-13T14:18:44.737Z,8.66
2024-02-13T14:23:47.836Z,8.62
2024-02-13T14:28:49.861Z,8.71
2024-02-13T14:33:51.936Z,8.67
2024-02-13T14:38:53.999Z,8.66
2024-02-13T14:43:56.608Z,8.67
2024-02-13T14:48:59.240Z,8.73
2024-02-13T14:54:02.020Z,8.63
2024-02-13T14:59:04.469Z,8.69
2024-02-13T15:04:07.786Z,8.76
2024-02-13T15:09:11.590Z,8.64
2024-02-13T15:14:14.862Z,8.88
2024-02-13T15:19:16.886Z,8.70
2024-02-13T15:24:23.719Z,8.77
2024-02-13T15:29:26.617Z,8.79
2024-02-13T15:34:28.824Z,8.66
2024-02-13T15:39:50.186Z,8.54
2024-02-13T15:45:10.543Z,8.45
2024-02-13T15:50:12.762Z,8.47
2024-02-13T15:55:19.468Z,8.43
2024-02-13T16:00:28.115Z,8.59
2024-02-13T16:05:30.794Z,8.54
2024-02-13T16:10:33.527Z,8.46
2024-02-13T16:15:42.841Z,8.48
2024-02-13T16:20:45.085Z,8.39
2024-02-13T16:25:47.195Z,8.43
2024-02-13T16:30:49.670Z,8.40
2024-02-13T16:35:51.643Z,8.31
2024-02-13T16:40:53.652Z,8.23
2024-02-13T16:45:55.603Z,8.11
2024-02-13T16:50:58.361Z,8.11
2024-02-13T16:56:01.653Z,8.07
2024-02-13T17:01:06.660Z,8.02
2024-02-13T17:06:10.083Z,7.95
2024-02-13T17:11:12.382Z,7.91
2024-02-13T17:16:16.017Z,7.84
2024-02-13T17:21:18.101Z,7.87
2024-02-13T17:26:21.086Z,7.74
2024-02-13T17:31:23.041Z,7.71
2024-02-13T17:36:25.146Z,7.67
2024-02-13T17:41:28.872Z,7.64
2024-02-13T17:51:33.262Z,7.64
2024-02-13T17:56:35.436Z,7.65
2024-02-13T18:01:37.695Z,7.60
2024-02-13T18:06:39.857Z,7.64
2024-02-13T18:11:42.833Z,7.58
2024-02-13T18:16:44.801Z,7.54
2024-02-13T18:21:49.984Z,7.43
2024-02-13T18:26:53.286Z,7.33
2024-02-13T18:31:57.147Z,7.17
2024-02-13T18:37:00.255Z,7.04
2024-02-13T18:42:02.225Z,6.88
2024-02-13T18:47:05.361Z,6.85
2024-02-13T18:52:08.927Z,6.88
2024-02-13T18:57:11.052Z,6.88
2024-02-13T19:02:15.036Z,6.83
2024-02-13T19:07:18.268Z,6.90
2024-02-13T19:12:20.577Z,6.81
2024-02-13T19:17:22.758Z,6.80
2024-02-13T19:22:25.171Z,6.76
2024-02-13T19:27:36.120Z,6.69
2024-02-13T19:32:39.582Z,6.77
2024-02-13T19:37:41.787Z,6.76
2024-02-13T19:42:45.088Z,6.79
2024-02-13T19:47:48.765Z,6.80
2024-02-13T19:52:55.228Z,6.82
2024-02-13T19:58:09.926Z,6.82
2024-02-13T20:03:15.339Z,6.83
2024-02-13T20:08:23.692Z,6.83
2024-02-13T20:13:30.546Z,6.82
2024-02-13T20:18:36.782Z,6.90
2024-02-13T20:23:41.748Z,6.93
2024-02-13T20:28:47.641Z,6.97
2024-02-13T20:33:51.054Z,7.03
2024-02-13T20:38:57.848Z,7.01
2024-02-13T20:44:07.159Z,7.00
2024-02-13T20:49:18.068Z,7.12
2024-02-13T20:54:20.708Z,7.11
2024-02-13T20:59:30.984Z,7.20
2024-02-13T21:04:34.079Z,7.14
2024-02-13T21:09:40.768Z,7.29
2024-02-13T21:14:45.829Z,7.18
2024-02-13T21:19:59.969Z,7.32
2024-02-13T21:25:02.288Z,7.28
2024-02-13T21:30:06.068Z,7.36
2024-02-13T21:35:12.520Z,7.36
2024-02-13T21:40:15.823Z,7.40
2024-02-13T21:45:18.417Z,7.40
2024-02-13T21:50:22.501Z,7.40
2024-02-13T21:55:31.450Z,7.53
2024-02-13T22:00:34.872Z,7.64
2024-02-13T22:05:39.748Z,7.73
2024-02-13T22:10:50.481Z,7.80
2024-02-13T22:16:09.859Z,7.66
2024-02-13T22:21:20.629Z,7.55
2024-02-13T22:26:38.507Z,7.54
2024-02-13T22:31:40.776Z,7.35
2024-02-13T22:36:47.616Z,7.26
2024-02-13T22:41:51.159Z,7.16
2024-02-13T22:46:56.720Z,7.15
2024-02-13T22:51:58.840Z,7.08
2024-02-13T22:57:06.747Z,7.02
2024-02-13T23:02:09.430Z,6.99
2024-02-13T23:07:11.555Z,7.03
2024-02-13T23:12:17.173Z,7.05
2024-02-13T23:17:22.559Z,7.05
2024-02-13T23:22:31.326Z,7.05
2024-02-13T23:27:33.303Z,7.08
2024-02-13T23:32:35.675Z,7.11
2024-02-13T23:37:37.973Z,7.17
2024-02-13T23:42:40.577Z,7.15
2024-02-13T23:47:44.033Z,7.14
2024-02-13T23:52:48.398Z,7.20
2024-02-13T23:57:50.405Z,7.24
